createdAt,value
2022-12-16T21:10:43.857Z,15.65
2022-12-16T21:11:43.808Z,15.72
2022-12-16T21:13:48.311Z,16.10
2022-12-16T21:14:47.736Z,16.29
2022-12-16T21:16:51.706Z,16.89
2022-12-16T21:17:51.678Z,17.10
2022-12-16T21:19:56.113Z,17.63
2022-12-16T21:20:55.926Z,17.71
2022-12-16T21:22:54.166Z,18.30
2022-12-16T21:24:01.263Z,17.87
2022-12-16T21:24:56.287Z,17.23
2022-12-16T21:25:54.413Z,16.50
2022-12-16T21:26:54.201Z,15.73
2022-12-16T21:27:54.400Z,14.99
2022-12-16T21:28:54.093Z,14.45
2022-12-16T21:29:54.050Z,13.76
2022-12-16T21:30:54.029Z,13.06
2022-12-16T21:31:54.017Z,12.48
2022-12-16T21:32:53.998Z,11.83
2022-12-16T21:33:54.005Z,11.18
2022-12-16T21:34:53.966Z,10.53
2022-12-16T21:35:53.951Z,10.05
2022-12-16T21:36:53.930Z,9.51
2022-12-16T21:37:53.932Z,8.96
2022-12-16T21:38:56.122Z,8.41
2022-12-16T21:39:53.948Z,7.96
2022-12-16T21:40:53.876Z,7.48
2022-12-16T21:41:53.844Z,7.11
2022-12-16T21:42:56.363Z,6.90
2022-12-16T21:43:53.810Z,6.41
2022-12-16T21:44:53.786Z,6.13
2022-12-16T21:45:53.791Z,5.76
2022-12-16T21:46:53.744Z,5.34
2022-12-16T21:47:53.726Z,4.97
2022-12-16T21:48:53.702Z,4.67
2022-12-16T21:49:53.697Z,4.31
2022-12-16T21:50:53.660Z,4.06
2022-12-16T21:51:53.653Z,3.76
2022-12-16T21:52:53.638Z,3.68
2022-12-16T21:53:53.679Z,3.29
2022-12-16T21:54:53.576Z,3.03
2022-12-16T21:55:53.605Z,2.85
2022-12-16T21:56:53.535Z,2.57
2022-12-16T21:57:53.636Z,2.37
2022-12-16T21:58:53.513Z,2.16
2022-12-16T21:59:53.469Z,2.04
2022-12-16T22:00:57.433Z,1.78
2022-12-16T22:01:53.511Z,1.66
2022-12-16T22:02:53.399Z,1.52
2022-12-16T22:03:53.751Z,1.32
2022-12-16T22:04:53.491Z,1.18
2022-12-16T22:05:53.333Z,0.99
2022-12-16T22:06:53.318Z,0.88
2022-12-16T22:07:53.285Z,0.91
2022-12-16T22:08:53.265Z,0.84
2022-12-16T22:09:53.237Z,0.74
2022-12-16T22:10:53.220Z,0.63
2022-12-16T22:11:53.189Z,0.51
2022-12-16T22:12:56.136Z,0.39
2022-12-16T22:13:53.147Z,0.23
2022-12-16T22:14:53.125Z,0.05
2022-12-16T22:15:53.095Z,-0.07
2022-12-16T22:16:53.622Z,-0.09
2022-12-16T22:17:58.082Z,-0.23
2022-12-16T22:18:53.032Z,-0.38
2022-12-16T22:19:53.001Z,-0.39
2022-12-16T22:20:54.829Z,-0.49
2022-12-16T22:21:52.982Z,-0.66
2022-12-16T22:22:52.926Z,-0.60
2022-12-16T22:23:52.903Z,-0.70
2022-12-16T22:24:52.882Z,-0.69
2022-12-16T22:25:52.855Z,-0.63
2022-12-16T22:26:53.399Z,-0.70
2022-12-16T22:27:52.807Z,-0.72
2022-12-16T22:28:52.778Z,-0.82
2022-12-16T22:29:52.764Z,-0.75
2022-12-16T22:30:52.739Z,-0.80
2022-12-16T22:31:52.715Z,-0.94
2022-12-16T22:32:52.684Z,-0.87
2022-12-16T22:33:53.292Z,-0.87
2022-12-16T22:34:52.668Z,-0.87
2022-12-16T22:35:52.610Z,-0.93
2022-12-16T22:36:52.586Z,-0.97
2022-12-16T22:37:52.566Z,-0.97
2022-12-16T22:38:52.546Z,-1.00
2022-12-16T22:39:52.514Z,-1.00
2022-12-16T22:40:52.482Z,-0.96
2022-12-16T22:41:53.195Z,-0.97
2022-12-16T22:42:52.440Z,-1.00
2022-12-16T22:43:52.424Z,-1.09
2022-12-16T22:44:52.387Z,-1.01
2022-12-16T22:45:52.499Z,-1.07
2022-12-16T22:46:52.340Z,-1.09
2022-12-16T22:47:52.313Z,-1.09
2022-12-16T22:48:52.290Z,-1.17
2022-12-16T22:49:52.262Z,-1.17
2022-12-16T22:50:52.238Z,-1.17
2022-12-16T22:51:52.212Z,-1.21
2022-12-16T22:52:52.194Z,-1.18
2022-12-16T22:53:52.168Z,-1.14
2022-12-16T22:54:52.138Z,-1.15
2022-12-16T22:55:52.134Z,-1.14
2022-12-16T22:56:52.088Z,-1.11
2022-12-16T22:57:53.525Z,-1.17
2022-12-16T22:58:52.040Z,-1.12
2022-12-16T22:59:52.016Z,-1.21
2022-12-16T23:00:52.071Z,-1.32
2022-12-16T23:01:52.005Z,-1.32
2022-12-16T23:02:51.950Z,-1.42
2022-12-16T23:03:51.990Z,-1.42
2022-12-16T23:04:51.961Z,-1.39
2022-12-16T23:05:51.861Z,-1.35
2022-12-16T23:06:51.912Z,-1.38
2022-12-16T23:07:51.815Z,-1.40
2022-12-16T23:08:51.786Z,-1.42
2022-12-16T23:09:53.310Z,-1.39
2022-12-16T23:10:51.738Z,-1.35
2022-12-16T23:11:51.710Z,-1.40
2022-12-16T23:12:51.686Z,-1.33
2022-12-16T23:13:51.663Z,-1.36
2022-12-16T23:14:51.643Z,-1.42
2022-12-16T23:15:51.979Z,-1.48
2022-12-16T23:16:51.586Z,-1.46
2022-12-16T23:17:51.565Z,-1.46
2022-12-16T23:18:52.088Z,-1.42
2022-12-16T23:19:51.508Z,-1.50
2022-12-16T23:20:51.486Z,-1.46
2022-12-16T23:21:51.462Z,-1.54
2022-12-16T23:22:51.434Z,-1.45
2022-12-16T23:23:51.412Z,-1.51
2022-12-16T23:24:51.387Z,-1.56
2022-12-16T23:25:51.359Z,-1.53
2022-12-16T23:26:51.336Z,-1.61
2022-12-16T23:27:51.308Z,-1.57
2022-12-16T23:28:51.389Z,-1.54
2022-12-16T23:29:51.259Z,-1.57
2022-12-16T23:30:51.283Z,-1.53
2022-12-16T23:31:51.968Z,-1.68
2022-12-16T23:32:51.184Z,-1.68
2022-12-16T23:33:51.161Z,-1.60
2022-12-16T23:34:51.137Z,-1.57
2022-12-16T23:35:51.107Z,-1.61
2022-12-16T23:36:51.083Z,-1.46
2022-12-16T23:37:51.059Z,-1.68
2022-12-16T23:38:51.042Z,-1.58
2022-12-16T23:39:51.006Z,-1.64
2022-12-16T23:40:50.986Z,-1.57
2022-12-16T23:41:50.956Z,-1.54
2022-12-16T23:42:51.312Z,-1.57
2022-12-16T23:43:50.913Z,-1.58
2022-12-16T23:44:56.295Z,-1.63
2022-12-16T23:45:50.852Z,-1.66
2022-12-16T23:46:50.891Z,-1.64
2022-12-16T23:47:50.802Z,-1.61
2022-12-16T23:48:50.779Z,-1.69
2022-12-16T23:49:51.980Z,-1.69
2022-12-16T23:50:50.736Z,-1.63
2022-12-16T23:51:50.702Z,-1.58
2022-12-16T23:52:50.678Z,-1.60
2022-12-16T23:53:50.660Z,-1.58
2022-12-16T23:54:50.631Z,-1.58
2022-12-16T23:55:50.604Z,-1.60
2022-12-16T23:56:50.577Z,-1.68
2022-12-16T23:57:50.551Z,-1.61
2022-12-16T23:58:50.532Z,-1.64
2022-12-16T23:59:50.499Z,-1.63
